マガダン の空港の天気 - METARとTAF

マガダン・ソコル空港 ( UHMM / GDX ) - ロシア マガダン
飛行場実況気象(Metar)
観測時間06/20 03:00 MAGT (06/19 16:00 UTC)
風向・風速静穏 0m/s
視程10km以上
天気現象
全天を覆う雲 雲底高度 240m
気温5℃
湿度93%
気圧1015hPa
METARUHMM 191600Z 00000MPS 9999 OVC008 05/04 Q1015 RMK QFE746
過去の天気等 Google飛行場航空写真 Wunderground天気予報

過去48時間のMETAR

飛行場予報(TAF)
発表時間: 6/20 00:56 MAGT (6/19 13:56 UTC)
予報対象時間: 20日2時 MAGT ~ 21日8時 MAGT
風向・風速不定 1m/s
視程400m
天気現象
全天を覆う雲 鉛直視程 90m
20日7時 MAGT から
風向・風速西南西 3m/s 瞬間風速 8m/s
視程10km以上
全天の8割程度の雲 雲底高度 150m
全天を覆う雲 雲底高度 2130m
20日10時 MAGT ~ 20日11時 MAGT に徐々に
全天の4割程度の雲 雲底高度 760m
全天の8割程度の雲 雲底高度 2130m
20日23時 MAGT ~ 21日8時 MAGT に一時的に
視程3100m
天気現象もや
全天を覆う雲 鉛直視程 340m
TAF UHMM 191356Z 1915/2021 VRB01MPS 0400 FG VV003
FM192000 25003G08MPS 9999 BKN005 OVC070
BECMG 1923/1924 SCT025 BKN070
TEMPO 2012/2021 3100 BR VV011